sensor_id;sensor_type;location;lat;lon;timestamp;temperature;humidity
14769;DHT22;7476;49.404;11.152;2022-09-12T00:00:21;9.10;99.90
14769;DHT22;7476;49.404;11.152;2022-09-12T00:02:51;9.30;99.90
14769;DHT22;7476;49.404;11.152;2022-09-12T00:05:18;9.30;99.90
14769;DHT22;7476;49.404;11.152;2022-09-12T00:07:45;9.10;99.90
14769;DHT22;7476;49.404;11.152;2022-09-12T00:10:13;9.00;99.90
14769;DHT22;7476;49.404;11.152;2022-09-12T00:12:40;8.80;99.90
14769;DHT22;7476;49.404;11.152;2022-09-12T00:15:08;8.70;99.90
14769;DHT22;7476;49.404;11.152;2022-09-12T00:17:35;8.50;99.90
14769;DHT22;7476;49.404;11.152;2022-09-12T00:20:03;8.40;99.90
14769;DHT22;7476;49.404;11.152;2022-09-12T00:22:30;8.50;99.90
14769;DHT22;7476;49.404;11.152;2022-09-12T00:24:57;8.90;99.90
14769;DHT22;7476;49.404;11.152;2022-09-12T00:27:26;9.10;99.90
14769;DHT22;7476;49.404;11.152;2022-09-12T00:29:53;8.80;99.90
14769;DHT22;7476;49.404;11.152;2022-09-12T00:32:20;8.70;99.90
14769;DHT22;7476;49.404;11.152;2022-09-12T00:34:47;8.50;99.90
14769;DHT22;7476;49.404;11.152;2022-09-12T00:37:14;8.40;99.90
14769;DHT22;7476;49.404;11.152;2022-09-12T00:39:40;8.30;99.90
14769;DHT22;7476;49.404;11.152;2022-09-12T00:42:08;8.20;99.90
14769;DHT22;7476;49.404;11.152;2022-09-12T00:44:49;8.10;99.90
14769;DHT22;7476;49.404;11.152;2022-09-12T00:47:20;8.10;99.90
14769;DHT22;7476;49.404;11.152;2022-09-12T00:49:49;8.20;99.90
14769;DHT22;7476;49.404;11.152;2022-09-12T00:52:21;8.20;99.90
14769;DHT22;7476;49.404;11.152;2022-09-12T00:54:54;8.10;99.90
14769;DHT22;7476;49.404;11.152;2022-09-12T00:57:23;8.00;99.90
14769;DHT22;7476;49.404;11.152;2022-09-12T00:59:55;8.00;99.90
14769;DHT22;7476;49.404;11.152;2022-09-12T01:02:23;8.00;99.90
14769;DHT22;7476;49.404;11.152;2022-09-12T01:04:50;8.00;99.90
14769;DHT22;7476;49.404;11.152;2022-09-12T01:07:18;8.00;99.90
14769;DHT22;7476;49.404;11.152;2022-09-12T01:09:45;8.00;99.90
14769;DHT22;7476;49.404;11.152;2022-09-12T01:12:13;8.00;99.90
14769;DHT22;7476;49.404;11.152;2022-09-12T01:14:40;8.20;99.90
14769;DHT22;7476;49.404;11.152;2022-09-12T01:17:11;8.50;99.90
14769;DHT22;7476;49.404;11.152;2022-09-12T01:20:04;8.70;99.90
14769;DHT22;7476;49.404;11.152;2022-09-12T01:25:57;8.60;99.90
14769;DHT22;7476;49.404;11.152;2022-09-12T01:28:44;8.40;99.90
14769;DHT22;7476;49.404;11.152;2022-09-12T01:31:22;8.40;99.90
14769;DHT22;7476;49.404;11.152;2022-09-12T01:33:59;8.50;99.90
14769;DHT22;7476;49.404;11.152;2022-09-12T01:36:42;8.30;99.90
14769;DHT22;7476;49.404;11.152;2022-09-12T01:39:19;8.10;99.90
14769;DHT22;7476;49.404;11.152;2022-09-12T01:41:50;7.90;99.90
14769;DHT22;7476;49.404;11.152;2022-09-12T01:44:24;7.90;99.90
14769;DHT22;7476;49.404;11.152;2022-09-12T01:47:01;7.80;99.90
14769;DHT22;7476;49.404;11.152;2022-09-12T01:49:34;7.80;99.90
14769;DHT22;7476;49.404;11.152;2022-09-12T01:52:05;7.80;99.90
14769;DHT22;7476;49.404;11.152;2022-09-12T01:54:38;7.70;99.90
14769;DHT22;7476;49.404;11.152;2022-09-12T01:57:11;7.70;99.90
14769;DHT22;7476;49.404;11.152;2022-09-12T01:59:43;7.60;99.90
14769;DHT22;7476;49.404;11.152;2022-09-12T02:02:14;7.70;99.90
14769;DHT22;7476;49.404;11.152;2022-09-12T02:04:46;8.30;99.90
14769;DHT22;7476;49.404;11.152;2022-09-12T02:07:18;8.10;99.90
14769;DHT22;7476;49.404;11.152;2022-09-12T02:09:49;7.80;99.90
14769;DHT22;7476;49.404;11.152;2022-09-12T02:12:21;7.70;99.90
14769;DHT22;7476;49.404;11.152;2022-09-12T02:14:53;7.60;99.90
14769;DHT22;7476;49.404;11.152;2022-09-12T02:17:24;7.70;99.90
14769;DHT22;7476;49.404;11.152;2022-09-12T02:19:55;7.70;99.90
14769;DHT22;7476;49.404;11.152;2022-09-12T02:22:25;7.60;99.90
14769;DHT22;7476;49.404;11.152;2022-09-12T02:24:55;7.90;99.90
14769;DHT22;7476;49.404;11.152;2022-09-12T02:27:24;7.60;99.90
14769;DHT22;7476;49.404;11.152;2022-09-12T02:29:52;7.50;99.90
14769;DHT22;7476;49.404;11.152;2022-09-12T02:32:27;7.60;99.90
14769;DHT22;7476;49.404;11.152;2022-09-12T02:34:58;7.40;99.90
14769;DHT22;7476;49.404;11.152;2022-09-12T02:37:33;7.20;99.90
14769;DHT22;7476;49.404;11.152;2022-09-12T02:40:04;7.20;99.90
14769;DHT22;7476;49.404;11.152;2022-09-12T02:42:31;7.20;99.90
14769;DHT22;7476;49.404;11.152;2022-09-12T02:44:58;7.10;99.90
14769;DHT22;7476;49.404;11.152;2022-09-12T02:47:30;7.10;99.90
14769;DHT22;7476;49.404;11.152;2022-09-12T02:49:58;7.00;99.90
14769;DHT22;7476;49.404;11.152;2022-09-12T02:52:27;7.00;99.90
14769;DHT22;7476;49.404;11.152;2022-09-12T02:54:54;7.10;99.90
14769;DHT22;7476;49.404;11.152;2022-09-12T02:57:23;7.10;99.90
14769;DHT22;7476;49.404;11.152;2022-09-12T02:59:51;7.10;99.90
14769;DHT22;7476;49.404;11.152;2022-09-12T03:02:28;7.00;99.90
14769;DHT22;7476;49.404;11.152;2022-09-12T03:05:08;7.10;99.90
14769;DHT22;7476;49.404;11.152;2022-09-12T03:07:52;7.50;99.90
14769;DHT22;7476;49.404;11.152;2022-09-12T03:10:26;7.40;99.90
14769;DHT22;7476;49.404;11.152;2022-09-12T03:13:04;7.60;99.90
14769;DHT22;7476;49.404;11.152;2022-09-12T03:15:41;7.40;99.90
14769;DHT22;7476;49.404;11.152;2022-09-12T03:18:21;7.30;99.90
14769;DHT22;7476;49.404;11.152;2022-09-12T03:20:57;7.10;99.90
14769;DHT22;7476;49.404;11.152;2022-09-12T03:23:29;7.00;99.90
14769;DHT22;7476;49.404;11.152;2022-09-12T03:26:00;7.00;99.90
14769;DHT22;7476;49.404;11.152;2022-09-12T03:28:28;6.80;99.90
14769;DHT22;7476;49.404;11.152;2022-09-12T03:30:56;6.80;99.90
14769;DHT22;7476;49.404;11.152;2022-09-12T03:33:25;7.20;99.90
14769;DHT22;7476;49.404;11.152;2022-09-12T03:35:52;7.60;99.90
14769;DHT22;7476;49.404;11.152;2022-09-12T03:38:20;7.40;99.90
14769;DHT22;7476;49.404;11.152;2022-09-12T03:40:46;7.30;99.90
14769;DHT22;7476;49.404;11.152;2022-09-12T03:43:13;7.20;99.90
14769;DHT22;7476;49.404;11.152;2022-09-12T03:45:40;7.40;99.90
14769;DHT22;7476;49.404;11.152;2022-09-12T03:48:06;7.40;99.90
14769;DHT22;7476;49.404;11.152;2022-09-12T03:50:34;7.50;99.90
14769;DHT22;7476;49.404;11.152;2022-09-12T03:53:02;7.60;99.90
14769;DHT22;7476;49.404;11.152;2022-09-12T03:55:29;7.60;99.90
14769;DHT22;7476;49.404;11.152;2022-09-12T03:57:55;7.20;99.90
14769;DHT22;7476;49.404;11.152;2022-09-12T04:00:22;7.10;99.90
14769;DHT22;7476;49.404;11.152;2022-09-12T04:02:53;6.90;99.90
14769;DHT22;7476;49.404;11.152;2022-09-12T04:05:20;6.90;99.90
14769;DHT22;7476;49.404;11.152;2022-09-12T04:07:48;6.90;99.90
14769;DHT22;7476;49.404;11.152;2022-09-12T04:10:15;6.90;99.90
14769;DHT22;7476;49.404;11.152;2022-09-12T04:12:42;7.30;99.90
14769;DHT22;7476;49.404;11.152;2022-09-12T04:15:09;7.10;99.90
14769;DHT22;7476;49.404;11.152;2022-09-12T04:17:36;6.80;99.90
14769;DHT22;7476;49.404;11.152;2022-09-12T04:20:03;6.80;99.90
14769;DHT22;7476;49.404;11.152;2022-09-12T04:22:30;6.80;99.90
14769;DHT22;7476;49.404;11.152;2022-09-12T04:24:59;6.70;99.90
14769;DHT22;7476;49.404;11.152;2022-09-12T04:27:25;6.60;99.90
14769;DHT22;7476;49.404;11.152;2022-09-12T04:29:52;6.60;99.90
14769;DHT22;7476;49.404;11.152;2022-09-12T04:32:19;6.70;99.90
14769;DHT22;7476;49.404;11.152;2022-09-12T04:34:46;6.60;99.90
14769;DHT22;7476;49.404;11.152;2022-09-12T04:37:13;6.60;99.90
14769;DHT22;7476;49.404;11.152;2022-09-12T04:39:41;6.60;99.90
14769;DHT22;7476;49.404;11.152;2022-09-12T04:42:09;6.60;99.90
14769;DHT22;7476;49.404;11.152;2022-09-12T04:44:36;6.60;99.90
14769;DHT22;7476;49.404;11.152;2022-09-12T04:47:03;6.70;99.90
14769;DHT22;7476;49.404;11.152;2022-09-12T04:49:29;6.70;99.90
14769;DHT22;7476;49.404;11.152;2022-09-12T04:51:56;6.70;99.90
14769;DHT22;7476;49.404;11.152;2022-09-12T04:54:23;6.60;99.90
14769;DHT22;7476;49.404;11.152;2022-09-12T04:56:50;6.60;99.90
14769;DHT22;7476;49.404;11.152;2022-09-12T04:59:21;6.60;99.90
14769;DHT22;7476;49.404;11.152;2022-09-12T05:01:47;6.60;99.90
14769;DHT22;7476;49.404;11.152;2022-09-12T05:04:14;6.60;99.90
14769;DHT22;7476;49.404;11.152;2022-09-12T05:06:41;6.70;99.90
14769;DHT22;7476;49.404;11.152;2022-09-12T05:09:10;6.80;99.90
14769;DHT22;7476;49.404;11.152;2022-09-12T05:11:40;6.90;99.90
14769;DHT22;7476;49.404;11.152;2022-09-12T05:14:08;7.00;99.90
14769;DHT22;7476;49.404;11.152;2022-09-12T05:16:36;7.00;99.90
14769;DHT22;7476;49.404;11.152;2022-09-12T05:19:03;7.00;99.90
14769;DHT22;7476;49.404;11.152;2022-09-12T05:21:29;7.10;99.90
14769;DHT22;7476;49.404;11.152;2022-09-12T05:23:57;7.10;99.90
14769;DHT22;7476;49.404;11.152;2022-09-12T05:26:25;7.20;99.90
14769;DHT22;7476;49.404;11.152;2022-09-12T05:28:52;7.50;99.90
14769;DHT22;7476;49.404;11.152;2022-09-12T05:31:20;7.50;99.90
14769;DHT22;7476;49.404;11.152;2022-09-12T05:33:50;7.70;99.90
14769;DHT22;7476;49.404;11.152;2022-09-12T05:36:18;8.10;99.90
14769;DHT22;7476;49.404;11.152;2022-09-12T05:38:45;8.20;99.90
14769;DHT22;7476;49.404;11.152;2022-09-12T05:41:13;8.30;99.90
14769;DHT22;7476;49.404;11.152;2022-09-12T05:43:41;8.50;99.90
14769;DHT22;7476;49.404;11.152;2022-09-12T05:46:10;8.70;99.90
14769;DHT22;7476;49.404;11.152;2022-09-12T05:48:38;9.00;99.90
14769;DHT22;7476;49.404;11.152;2022-09-12T05:51:08;9.30;99.90
14769;DHT22;7476;49.404;11.152;2022-09-12T05:53:35;9.60;99.90
14769;DHT22;7476;49.404;11.152;2022-09-12T05:56:08;9.70;99.90
14769;DHT22;7476;49.404;11.152;2022-09-12T05:58:37;10.00;99.90
14769;DHT22;7476;49.404;11.152;2022-09-12T06:01:05;10.30;99.90
14769;DHT22;7476;49.404;11.152;2022-09-12T06:03:33;10.30;99.90
14769;DHT22;7476;49.404;11.152;2022-09-12T06:06:03;10.50;99.90
14769;DHT22;7476;49.404;11.152;2022-09-12T06:08:32;10.70;99.90
14769;DHT22;7476;49.404;11.152;2022-09-12T06:11:01;10.80;99.90
14769;DHT22;7476;49.404;11.152;2022-09-12T06:13:27;10.80;99.90
14769;DHT22;7476;49.404;11.152;2022-09-12T06:16:02;11.00;99.90
14769;DHT22;7476;49.404;11.152;2022-09-12T06:18:29;11.30;99.90
14769;DHT22;7476;49.404;11.152;2022-09-12T06:20:56;11.50;99.90
14769;DHT22;7476;49.404;11.152;2022-09-12T06:23:23;11.60;99.90
14769;DHT22;7476;49.404;11.152;2022-09-12T06:25:52;11.40;99.90
14769;DHT22;7476;49.404;11.152;2022-09-12T06:28:19;11.00;99.90
14769;DHT22;7476;49.404;11.152;2022-09-12T06:30:46;11.20;99.90
14769;DHT22;7476;49.404;11.152;2022-09-12T06:33:13;11.60;99.90
14769;DHT22;7476;49.404;11.152;2022-09-12T06:35:40;12.40;99.90
14769;DHT22;7476;49.404;11.152;2022-09-12T06:38:06;12.70;99.90
14769;DHT22;7476;49.404;11.152;2022-09-12T06:40:34;13.10;99.90
14769;DHT22;7476;49.404;11.152;2022-09-12T06:43:02;13.50;99.90
14769;DHT22;7476;49.404;11.152;2022-09-12T06:45:29;13.70;99.90
14769;DHT22;7476;49.404;11.152;2022-09-12T06:47:57;14.50;99.90
14769;DHT22;7476;49.404;11.152;2022-09-12T06:50:23;14.50;99.90
14769;DHT22;7476;49.404;11.152;2022-09-12T06:52:50;13.40;99.90
14769;DHT22;7476;49.404;11.152;2022-09-12T06:55:16;13.70;99.90
14769;DHT22;7476;49.404;11.152;2022-09-12T06:57:43;14.70;99.90
14769;DHT22;7476;49.404;11.152;2022-09-12T07:00:12;14.30;99.90
14769;DHT22;7476;49.404;11.152;2022-09-12T07:02:39;14.90;99.90
14769;DHT22;7476;49.404;11.152;2022-09-12T07:05:06;16.20;99.90
14769;DHT22;7476;49.404;11.152;2022-09-12T07:07:34;16.20;99.90
14769;DHT22;7476;49.404;11.152;2022-09-12T07:10:01;16.40;99.90
14769;DHT22;7476;49.404;11.152;2022-09-12T07:12:28;16.40;99.90
14769;DHT22;7476;49.404;11.152;2022-09-12T07:14:55;17.60;99.90
14769;DHT22;7476;49.404;11.152;2022-09-12T07:17:23;18.20;99.90
14769;DHT22;7476;49.404;11.152;2022-09-12T07:19:49;17.50;99.90
14769;DHT22;7476;49.404;11.152;2022-09-12T07:22:16;18.00;99.90
14769;DHT22;7476;49.404;11.152;2022-09-12T07:24:43;18.90;99.90
14769;DHT22;7476;49.404;11.152;2022-09-12T07:27:10;19.70;99.90
14769;DHT22;7476;49.404;11.152;2022-09-12T07:29:37;19.80;99.90
14769;DHT22;7476;49.404;11.152;2022-09-12T07:32:04;19.20;99.90
14769;DHT22;7476;49.404;11.152;2022-09-12T07:34:33;19.70;99.90
14769;DHT22;7476;49.404;11.152;2022-09-12T07:36:59;20.30;99.90
14769;DHT22;7476;49.404;11.152;2022-09-12T07:39:26;20.00;99.90
14769;DHT22;7476;49.404;11.152;2022-09-12T07:41:53;20.50;99.90
14769;DHT22;7476;49.404;11.152;2022-09-12T07:44:20;21.10;99.90
14769;DHT22;7476;49.404;11.152;2022-09-12T07:46:47;21.60;99.90
14769;DHT22;7476;49.404;11.152;2022-09-12T07:49:15;21.80;99.90
14769;DHT22;7476;49.404;11.152;2022-09-12T07:51:43;21.80;99.90
14769;DHT22;7476;49.404;11.152;2022-09-12T07:54:10;21.40;99.90
14769;DHT22;7476;49.404;11.152;2022-09-12T07:56:37;21.20;99.90
14769;DHT22;7476;49.404;11.152;2022-09-12T07:59:04;21.30;99.90
14769;DHT22;7476;49.404;11.152;2022-09-12T08:01:31;21.80;99.90
14769;DHT22;7476;49.404;11.152;2022-09-12T08:03:58;21.10;99.90
14769;DHT22;7476;49.404;11.152;2022-09-12T08:06:27;21.00;99.90
14769;DHT22;7476;49.404;11.152;2022-09-12T08:08:57;21.30;99.90
14769;DHT22;7476;49.404;11.152;2022-09-12T08:11:26;20.80;99.90
14769;DHT22;7476;49.404;11.152;2022-09-12T08:13:53;21.30;99.90
14769;DHT22;7476;49.404;11.152;2022-09-12T08:16:23;21.50;99.90
14769;DHT22;7476;49.404;11.152;2022-09-12T08:18:50;21.80;99.90
14769;DHT22;7476;49.404;11.152;2022-09-12T08:21:18;22.20;99.90
14769;DHT22;7476;49.404;11.152;2022-09-12T08:23:46;22.20;99.90
14769;DHT22;7476;49.404;11.152;2022-09-12T08:26:14;22.30;99.90
14769;DHT22;7476;49.404;11.152;2022-09-12T08:28:43;23.00;99.90
14769;DHT22;7476;49.404;11.152;2022-09-12T08:31:12;23.30;99.90
14769;DHT22;7476;49.404;11.152;2022-09-12T08:33:39;23.10;99.90
14769;DHT22;7476;49.404;11.152;2022-09-12T08:36:08;23.20;99.90
14769;DHT22;7476;49.404;11.152;2022-09-12T08:38:36;22.30;99.90
14769;DHT22;7476;49.404;11.152;2022-09-12T08:41:08;21.80;99.90
14769;DHT22;7476;49.404;11.152;2022-09-12T08:43:53;22.40;99.90
14769;DHT22;7476;49.404;11.152;2022-09-12T08:46:24;23.10;99.90
14769;DHT22;7476;49.404;11.152;2022-09-12T08:48:54;23.90;99.90
14769;DHT22;7476;49.404;11.152;2022-09-12T08:51:24;24.30;99.90
14769;DHT22;7476;49.404;11.152;2022-09-12T08:53:53;24.30;99.90
14769;DHT22;7476;49.404;11.152;2022-09-12T08:56:21;24.10;99.90
14769;DHT22;7476;49.404;11.152;2022-09-12T08:58:49;23.50;99.90
14769;DHT22;7476;49.404;11.152;2022-09-12T09:01:23;23.80;99.90
14769;DHT22;7476;49.404;11.152;2022-09-12T09:04:08;23.70;99.90
14769;DHT22;7476;49.404;11.152;2022-09-12T09:06:51;22.90;99.90
14769;DHT22;7476;49.404;11.152;2022-09-12T09:09:25;22.70;99.90
14769;DHT22;7476;49.404;11.152;2022-09-12T09:12:02;22.30;99.90
14769;DHT22;7476;49.404;11.152;2022-09-12T09:14:48;22.40;99.90
14769;DHT22;7476;49.404;11.152;2022-09-12T09:17:23;23.20;99.90
14769;DHT22;7476;49.404;11.152;2022-09-12T09:19:57;24.20;99.90
14769;DHT22;7476;49.404;11.152;2022-09-12T09:22:35;24.00;99.90
14769;DHT22;7476;49.404;11.152;2022-09-12T09:25:10;23.90;99.90
14769;DHT22;7476;49.404;11.152;2022-09-12T09:27:43;24.00;99.90
14769;DHT22;7476;49.404;11.152;2022-09-12T09:30:17;23.80;99.90
14769;DHT22;7476;49.404;11.152;2022-09-12T09:32:46;24.10;99.90
14769;DHT22;7476;49.404;11.152;2022-09-12T09:35:16;23.80;99.90
14769;DHT22;7476;49.404;11.152;2022-09-12T09:37:54;23.90;99.90
14769;DHT22;7476;49.404;11.152;2022-09-12T09:40:24;22.50;99.90
14769;DHT22;7476;49.404;11.152;2022-09-12T09:42:57;22.60;99.90
14769;DHT22;7476;49.404;11.152;2022-09-12T09:45:26;22.30;99.90
14769;DHT22;7476;49.404;11.152;2022-09-12T09:47:57;23.00;99.90
14769;DHT22;7476;49.404;11.152;2022-09-12T09:50:26;24.20;99.90
14769;DHT22;7476;49.404;11.152;2022-09-12T09:52:55;24.60;99.90
14769;DHT22;7476;49.404;11.152;2022-09-12T09:55:27;25.00;99.90
14769;DHT22;7476;49.404;11.152;2022-09-12T09:57:55;24.60;99.90
14769;DHT22;7476;49.404;11.152;2022-09-12T10:00:26;23.50;99.90
14769;DHT22;7476;49.404;11.152;2022-09-12T10:06:22;22.80;99.90
14769;DHT22;7476;49.404;11.152;2022-09-12T10:08:49;23.20;99.90
14769;DHT22;7476;49.404;11.152;2022-09-12T10:11:19;22.90;99.90
14769;DHT22;7476;49.404;11.152;2022-09-12T10:13:53;22.90;99.90
14769;DHT22;7476;49.404;11.152;2022-09-12T10:16:24;23.10;99.90
14769;DHT22;7476;49.404;11.152;2022-09-12T10:18:53;22.30;99.90
14769;DHT22;7476;49.404;11.152;2022-09-12T10:21:24;22.20;99.90
14769;DHT22;7476;49.404;11.152;2022-09-12T10:23:59;22.50;99.90
14769;DHT22;7476;49.404;11.152;2022-09-12T10:26:31;22.70;99.90
14769;DHT22;7476;49.404;11.152;2022-09-12T10:29:03;22.70;99.90
14769;DHT22;7476;49.404;11.152;2022-09-12T10:31:40;22.40;99.90
14769;DHT22;7476;49.404;11.152;2022-09-12T10:34:21;22.10;99.90
14769;DHT22;7476;49.404;11.152;2022-09-12T10:36:52;21.60;99.90
14769;DHT22;7476;49.404;11.152;2022-09-12T10:39:20;21.50;99.90
14769;DHT22;7476;49.404;11.152;2022-09-12T10:41:47;21.30;99.90
14769;DHT22;7476;49.404;11.152;2022-09-12T10:44:16;21.70;99.90
14769;DHT22;7476;49.404;11.152;2022-09-12T10:46:44;22.50;99.90
14769;DHT22;7476;49.404;11.152;2022-09-12T10:49:22;23.60;99.90
14769;DHT22;7476;49.404;11.152;2022-09-12T10:51:50;24.40;99.90
14769;DHT22;7476;49.404;11.152;2022-09-12T10:54:20;24.10;99.90
14769;DHT22;7476;49.404;11.152;2022-09-12T11:00:09;23.50;99.90
14769;DHT22;7476;49.404;11.152;2022-09-12T11:02:50;23.20;99.90
14769;DHT22;7476;49.404;11.152;2022-09-12T11:05:35;23.00;99.90
14769;DHT22;7476;49.404;11.152;2022-09-12T11:10:54;22.80;99.90
14769;DHT22;7476;49.404;11.152;2022-09-12T11:13:33;23.20;99.90
14769;DHT22;7476;49.404;11.152;2022-09-12T11:16:12;23.60;99.90
14769;DHT22;7476;49.404;11.152;2022-09-12T11:21:58;25.50;99.90
14769;DHT22;7476;49.404;11.152;2022-09-12T11:24:45;26.30;99.90
14769;DHT22;7476;49.404;11.152;2022-09-12T11:27:31;25.40;99.90
14769;DHT22;7476;49.404;11.152;2022-09-12T11:30:03;26.50;99.90
14769;DHT22;7476;49.404;11.152;2022-09-12T11:32:59;27.10;99.90
14769;DHT22;7476;49.404;11.152;2022-09-12T11:35:32;26.90;99.90
14769;DHT22;7476;49.404;11.152;2022-09-12T11:38:17;26.80;99.90
14769;DHT22;7476;49.404;11.152;2022-09-12T11:40:51;25.30;99.90
14769;DHT22;7476;49.404;11.152;2022-09-12T11:43:30;24.90;99.90
14769;DHT22;7476;49.404;11.152;2022-09-12T11:46:05;24.40;99.90
14769;DHT22;7476;49.404;11.152;2022-09-12T11:48:39;24.80;99.90
14769;DHT22;7476;49.404;11.152;2022-09-12T11:51:16;25.40;99.90
14769;DHT22;7476;49.404;11.152;2022-09-12T11:53:46;26.00;99.90
14769;DHT22;7476;49.404;11.152;2022-09-12T11:56:16;26.50;99.90
14769;DHT22;7476;49.404;11.152;2022-09-12T11:58:46;27.00;99.90
14769;DHT22;7476;49.404;11.152;2022-09-12T12:01:19;27.50;99.90
14769;DHT22;7476;49.404;11.152;2022-09-12T12:03:47;28.00;99.90
14769;DHT22;7476;49.404;11.152;2022-09-12T12:06:17;27.90;99.90
14769;DHT22;7476;49.404;11.152;2022-09-12T12:08:45;27.30;99.90
14769;DHT22;7476;49.404;11.152;2022-09-12T12:11:14;27.70;99.50
14769;DHT22;7476;49.404;11.152;2022-09-12T12:13:46;28.00;99.90
14769;DHT22;7476;49.404;11.152;2022-09-12T12:16:19;28.00;98.20
14769;DHT22;7476;49.404;11.152;2022-09-12T12:18:53;27.60;99.90
14769;DHT22;7476;49.404;11.152;2022-09-12T12:21:36;26.90;99.50
14769;DHT22;7476;49.404;11.152;2022-09-12T12:24:13;28.00;97.00
14769;DHT22;7476;49.404;11.152;2022-09-12T12:26:56;28.00;98.00
14769;DHT22;7476;49.404;11.152;2022-09-12T12:29:37;27.70;96.60
14769;DHT22;7476;49.404;11.152;2022-09-12T12:32:22;28.50;95.70
14769;DHT22;7476;49.404;11.152;2022-09-12T12:34:49;29.20;94.70
14769;DHT22;7476;49.404;11.152;2022-09-12T12:37:47;29.70;95.80
14769;DHT22;7476;49.404;11.152;2022-09-12T12:40:21;29.40;92.90
14769;DHT22;7476;49.404;11.152;2022-09-12T12:43:00;29.60;92.20
14769;DHT22;7476;49.404;11.152;2022-09-12T12:48:43;29.90;94.90
14769;DHT22;7476;49.404;11.152;2022-09-12T12:51:21;29.50;91.20
14769;DHT22;7476;49.404;11.152;2022-09-12T12:53:50;29.10;91.60
14769;DHT22;7476;49.404;11.152;2022-09-12T12:56:32;28.50;93.40
14769;DHT22;7476;49.404;11.152;2022-09-12T12:59:01;28.30;93.40
14769;DHT22;7476;49.404;11.152;2022-09-12T13:01:29;27.90;94.90
14769;DHT22;7476;49.404;11.152;2022-09-12T13:04:00;28.60;93.60
14769;DHT22;7476;49.404;11.152;2022-09-12T13:06:31;29.50;92.50
14769;DHT22;7476;49.404;11.152;2022-09-12T13:09:03;29.60;91.90
14769;DHT22;7476;49.404;11.152;2022-09-12T13:11:33;29.20;92.00
14769;DHT22;7476;49.404;11.152;2022-09-12T13:14:02;28.80;93.10
14769;DHT22;7476;49.404;11.152;2022-09-12T13:16:33;28.70;94.20
14769;DHT22;7476;49.404;11.152;2022-09-12T13:19:05;28.60;92.90
14769;DHT22;7476;49.404;11.152;2022-09-12T13:21:32;28.60;93.70
14769;DHT22;7476;49.404;11.152;2022-09-12T13:24:02;29.00;92.70
14769;DHT22;7476;49.404;11.152;2022-09-12T13:26:33;28.90;93.50
14769;DHT22;7476;49.404;11.152;2022-09-12T13:29:13;28.80;92.10
14769;DHT22;7476;49.404;11.152;2022-09-12T13:31:42;29.60;92.20
14769;DHT22;7476;49.404;11.152;2022-09-12T13:34:10;29.60;92.40
14769;DHT22;7476;49.404;11.152;2022-09-12T13:37:09;29.30;91.90
14769;DHT22;7476;49.404;11.152;2022-09-12T13:39:45;28.20;92.80
14769;DHT22;7476;49.404;11.152;2022-09-12T13:42:36;27.90;93.00
14769;DHT22;7476;49.404;11.152;2022-09-12T13:45:06;27.60;93.40
14769;DHT22;7476;49.404;11.152;2022-09-12T13:47:39;27.60;93.10
14769;DHT22;7476;49.404;11.152;2022-09-12T13:50:07;27.60;92.20
14769;DHT22;7476;49.404;11.152;2022-09-12T13:52:38;27.90;93.80
14769;DHT22;7476;49.404;11.152;2022-09-12T13:55:09;27.90;94.20
14769;DHT22;7476;49.404;11.152;2022-09-12T13:57:42;28.20;93.80
14769;DHT22;7476;49.404;11.152;2022-09-12T14:00:14;28.60;92.40
14769;DHT22;7476;49.404;11.152;2022-09-12T14:02:44;28.80;91.00
14769;DHT22;7476;49.404;11.152;2022-09-12T14:05:13;27.20;93.00
14769;DHT22;7476;49.404;11.152;2022-09-12T14:07:51;27.00;94.70
14769;DHT22;7476;49.404;11.152;2022-09-12T14:10:25;26.60;92.50
14769;DHT22;7476;49.404;11.152;2022-09-12T14:12:53;26.30;93.60
14769;DHT22;7476;49.404;11.152;2022-09-12T14:15:23;26.00;95.70
14769;DHT22;7476;49.404;11.152;2022-09-12T14:17:53;26.20;96.80
14769;DHT22;7476;49.404;11.152;2022-09-12T14:20:21;26.60;96.10
14769;DHT22;7476;49.404;11.152;2022-09-12T14:22:49;26.30;94.80
14769;DHT22;7476;49.404;11.152;2022-09-12T14:25:18;26.10;95.30
14769;DHT22;7476;49.404;11.152;2022-09-12T14:27:50;25.20;96.10
14769;DHT22;7476;49.404;11.152;2022-09-12T14:30:21;25.80;95.80
14769;DHT22;7476;49.404;11.152;2022-09-12T14:33:02;26.50;95.10
14769;DHT22;7476;49.404;11.152;2022-09-12T14:35:30;27.80;94.40
14769;DHT22;7476;49.404;11.152;2022-09-12T14:38:05;28.10;92.30
14769;DHT22;7476;49.404;11.152;2022-09-12T14:40:40;28.40;92.00
14769;DHT22;7476;49.404;11.152;2022-09-12T14:43:17;28.30;91.70
14769;DHT22;7476;49.404;11.152;2022-09-12T14:45:51;28.40;92.70
14769;DHT22;7476;49.404;11.152;2022-09-12T14:48:19;28.80;91.50
14769;DHT22;7476;49.404;11.152;2022-09-12T14:50:48;28.80;91.50
14769;DHT22;7476;49.404;11.152;2022-09-12T14:53:25;28.60;91.00
14769;DHT22;7476;49.404;11.152;2022-09-12T14:55:58;27.60;93.60
14769;DHT22;7476;49.404;11.152;2022-09-12T14:58:30;26.50;95.10
14769;DHT22;7476;49.404;11.152;2022-09-12T15:00:59;25.60;95.80
14769;DHT22;7476;49.404;11.152;2022-09-12T15:03:31;25.80;97.40
14769;DHT22;7476;49.404;11.152;2022-09-12T15:05:59;27.90;94.20
14769;DHT22;7476;49.404;11.152;2022-09-12T15:08:28;28.50;93.70
14769;DHT22;7476;49.404;11.152;2022-09-12T15:10:55;28.60;92.00
14769;DHT22;7476;49.404;11.152;2022-09-12T15:13:23;28.80;92.00
14769;DHT22;7476;49.404;11.152;2022-09-12T15:15:53;28.60;92.40
14769;DHT22;7476;49.404;11.152;2022-09-12T15:18:21;29.70;92.00
14769;DHT22;7476;49.404;11.152;2022-09-12T15:20:50;29.50;90.60
14769;DHT22;7476;49.404;11.152;2022-09-12T15:23:24;30.30;91.50
14769;DHT22;7476;49.404;11.152;2022-09-12T15:25:52;32.10;88.90
14769;DHT22;7476;49.404;11.152;2022-09-12T15:28:21;32.50;86.10
14769;DHT22;7476;49.404;11.152;2022-09-12T15:30:49;32.80;85.30
14769;DHT22;7476;49.404;11.152;2022-09-12T15:33:20;34.00;83.30
14769;DHT22;7476;49.404;11.152;2022-09-12T15:35:47;31.60;85.90
14769;DHT22;7476;49.404;11.152;2022-09-12T15:38:14;29.40;90.40
14769;DHT22;7476;49.404;11.152;2022-09-12T15:40:41;29.80;89.30
14769;DHT22;7476;49.404;11.152;2022-09-12T15:43:08;30.10;90.30
14769;DHT22;7476;49.404;11.152;2022-09-12T15:45:35;30.80;89.00
14769;DHT22;7476;49.404;11.152;2022-09-12T15:48:02;29.00;87.50
14769;DHT22;7476;49.404;11.152;2022-09-12T15:50:31;29.60;89.80
14769;DHT22;7476;49.404;11.152;2022-09-12T15:52:58;29.10;90.60
14769;DHT22;7476;49.404;11.152;2022-09-12T15:55:27;30.30;88.20
14769;DHT22;7476;49.404;11.152;2022-09-12T15:57:54;30.10;89.10
14769;DHT22;7476;49.404;11.152;2022-09-12T16:00:21;28.50;91.20
14769;DHT22;7476;49.404;11.152;2022-09-12T16:02:50;29.30;91.00
14769;DHT22;7476;49.404;11.152;2022-09-12T16:05:19;29.20;91.30
14769;DHT22;7476;49.404;11.152;2022-09-12T16:07:50;28.10;91.40
14769;DHT22;7476;49.404;11.152;2022-09-12T16:10:19;26.50;93.80
14769;DHT22;7476;49.404;11.152;2022-09-12T16:12:46;26.30;94.60
14769;DHT22;7476;49.404;11.152;2022-09-12T16:15:14;27.10;93.80
14769;DHT22;7476;49.404;11.152;2022-09-12T16:17:41;28.60;92.50